Time;durP1;ratioP1;P1;durP2;ratioP2;P2;SDS_P1;SDS_P2;PMS_P1;PMS_P2;Temp;Humidity;BMP_temperature;BMP_pressure;BME280_temperature;BME280_humidity;BME280_pressure;Samples;Min_cycle;Max_cycle;Signal;HPM_P1;HPM_P2
2023/01/05 00:01:27;;;;;;;19.42;2.67;;;10.40;99.90;;;;;;5062333;28;20094;-37
2023/01/05 00:03:52;;;;;;;21.35;3.28;;;10.50;99.90;;;;;;5058437;28;20044;-39
2023/01/05 00:06:18;;;;;;;17.15;2.75;;;10.40;99.90;;;;;;5061352;28;20078;-37
2023/01/05 00:08:44;;;;;;;16.98;2.15;;;10.40;99.90;;;;;;5058834;28;20051;-38
2023/01/05 00:22:51;;;;;;;19.77;2.42;;;10.40;99.90;;;;;;5066261;28;20075;-38
2023/01/05 00:25:25;;;;;;;18.17;2.28;;;10.40;99.90;;;;;;5064371;28;20395;-38
2023/01/05 00:27:52;;;;;;;24.60;3.15;;;10.40;99.90;;;;;;5058622;28;20039;-38
2023/01/05 00:30:33;;;;;;;19.02;3.10;;;10.40;99.90;;;;;;5064610;28;20131;-37
2023/01/05 00:32:59;;;;;;;20.13;2.50;;;10.40;99.90;;;;;;5069702;28;20124;-38
2023/01/05 00:35:24;;;;;;;24.48;3.25;;;10.40;99.90;;;;;;5061632;28;20044;-39
2023/01/05 00:37:50;;;;;;;20.42;2.47;;;10.40;99.90;;;;;;5066465;28;20037;-46
2023/01/05 00:40:19;;;;;;;31.60;5.97;;;10.40;99.90;;;;;;5065711;28;20604;-39
2023/01/05 00:42:46;;;;;;;14.65;3.40;;;10.40;99.90;;;;;;5068755;28;20386;-37
2023/01/05 00:45:13;;;;;;;19.38;3.08;;;10.40;99.90;;;;;;5065222;28;20040;-42
2023/01/05 00:47:39;;;;;;;28.17;5.15;;;10.40;99.90;;;;;;5068596;28;21326;-38
2023/01/05 00:50:06;;;;;;;18.80;2.67;;;10.30;99.90;;;;;;5052505;28;20036;-39
2023/01/05 00:52:32;;;;;;;21.35;2.90;;;10.30;99.90;;;;;;5045336;28;20132;-38
2023/01/05 00:54:58;;;;;;;15.68;2.35;;;10.40;99.90;;;;;;5061776;28;20036;-37
2023/01/05 00:57:23;;;;;;;15.68;2.67;;;10.30;99.90;;;;;;5044282;28;20502;-38
2023/01/05 00:59:49;;;;;;;18.70;2.80;;;10.30;99.90;;;;;;5070412;28;20032;-38
2023/01/05 01:02:15;;;;;;;19.55;3.55;;;10.20;99.90;;;;;;5066594;28;20029;-39
2023/01/05 01:04:41;;;;;;;19.35;3.78;;;10.30;99.90;;;;;;5068091;28;20032;-38
2023/01/05 01:07:07;;;;;;;23.35;3.85;;;10.20;99.90;;;;;;5061002;28;20403;-37
2023/01/05 01:09:33;;;;;;;21.35;2.72;;;10.20;99.90;;;;;;5063020;28;20131;-38
2023/01/05 01:11:58;;;;;;;17.40;2.85;;;10.20;99.90;;;;;;5066260;28;20040;-37
2023/01/05 01:14:25;;;;;;;15.00;2.30;;;10.20;99.90;;;;;;5080356;28;20085;-38
2023/01/05 01:16:51;;;;;;;17.00;2.70;;;10.10;99.90;;;;;;5069035;28;20382;-37
2023/01/05 01:19:22;;;;;;;20.92;3.08;;;10.20;99.90;;;;;;5072045;28;20107;-37
2023/01/05 01:21:48;;;;;;;18.85;2.65;;;10.10;99.90;;;;;;5066773;28;20028;-38
2023/01/05 01:24:23;;;;;;;12.13;2.50;;;10.20;99.90;;;;;;5072961;28;20036;-38
2023/01/05 01:26:49;;;;;;;15.15;2.63;;;10.20;99.90;;;;;;5052971;28;20044;-38
2023/01/05 01:29:17;;;;;;;23.90;3.00;;;10.20;99.90;;;;;;5067710;28;20119;-38
2023/01/05 01:31:45;;;;;;;22.13;3.03;;;10.20;99.90;;;;;;5066802;28;20052;-38
2023/01/05 01:34:11;;;;;;;18.67;3.05;;;10.20;99.90;;;;;;5066572;28;20921;-38
2023/01/05 01:36:37;;;;;;;20.42;2.67;;;10.20;99.90;;;;;;5071738;28;20122;-38
2023/01/05 01:39:03;;;;;;;20.23;2.80;;;10.20;99.90;;;;;;5068648;28;20512;-38
2023/01/05 01:41:29;;;;;;;20.38;3.35;;;10.20;99.90;;;;;;5068932;28;20032;-38
2023/01/05 01:43:56;;;;;;;15.77;2.20;;;10.20;99.90;;;;;;5047655;28;20036;-39
2023/01/05 01:46:24;;;;;;;19.73;2.78;;;10.20;99.90;;;;;;5058669;28;20067;-37
2023/01/05 01:48:52;;;;;;;14.45;2.28;;;10.20;99.90;;;;;;5068640;28;20128;-37
2023/01/05 01:51:37;;;;;;;22.55;3.67;;;10.20;99.90;;;;;;5069415;28;20209;-38
2023/01/05 01:54:06;;;;;;;19.13;2.38;;;10.20;99.90;;;;;;5079958;28;20106;-39
2023/01/05 01:56:42;;;;;;;12.48;2.42;;;10.20;99.90;;;;;;5064823;28;20048;-38
2023/01/05 01:59:10;;;;;;;13.07;2.20;;;10.20;99.90;;;;;;5069004;28;20117;-39
2023/01/05 02:01:36;;;;;;;18.92;2.45;;;10.20;99.90;;;;;;5070361;28;20063;-38
2023/01/05 02:04:03;;;;;;;18.27;3.13;;;10.10;99.90;;;;;;5064490;28;20554;-38
2023/01/05 02:06:29;;;;;;;13.77;1.70;;;10.20;99.90;;;;;;5067776;28;20944;-39
2023/01/05 02:08:55;;;;;;;17.92;2.45;;;10.10;99.90;;;;;;5073332;28;20123;-39
2023/01/05 02:11:53;;;;;;;18.30;2.70;;;10.10;99.90;;;;;;5075267;28;20048;-39
2023/01/05 02:14:25;;;;;;;19.73;2.33;;;10.10;99.90;;;;;;5039262;28;20497;-39
2023/01/05 02:17:07;;;;;;;14.02;2.95;;;10.10;99.90;;;;;;5064651;28;20101;-37
2023/01/05 02:19:54;;;;;;;20.55;2.45;;;10.10;99.90;;;;;;5067000;28;20041;-40
2023/01/05 02:22:38;;;;;;;16.85;3.08;;;10.10;99.90;;;;;;5068245;28;20090;-39
2023/01/05 02:25:38;;;;;;;19.50;2.45;;;10.10;99.90;;;;;;5062695;28;20070;-38
2023/01/05 02:28:31;;;;;;;18.92;3.08;;;10.10;99.90;;;;;;5062795;28;20138;-42
2023/01/05 02:31:19;;;;;;;17.33;2.40;;;10.10;99.90;;;;;;5068989;28;20048;-40
2023/01/05 02:34:06;;;;;;;16.55;2.45;;;10.10;99.90;;;;;;5060284;28;20037;-38
2023/01/05 02:36:45;;;;;;;15.70;2.70;;;10.00;99.90;;;;;;5069728;28;20062;-39
2023/01/05 02:39:18;;;;;;;20.58;2.28;;;10.00;99.90;;;;;;5070427;28;20036;-37
2023/01/05 02:41:51;;;;;;;12.55;1.70;;;10.00;99.90;;;;;;5066903;28;20540;-40
2023/01/05 02:44:18;;;;;;;11.90;2.08;;;10.00;99.90;;;;;;5065197;28;20040;-39
2023/01/05 02:46:45;;;;;;;16.60;2.47;;;10.00;99.90;;;;;;5062666;28;20048;-38
2023/01/05 02:49:15;;;;;;;14.10;2.92;;;10.00;99.90;;;;;;5065181;28;20047;-37
2023/01/05 02:51:48;;;;;;;16.23;3.30;;;10.00;99.90;;;;;;5062767;28;20069;-38
2023/01/05 02:54:23;;;;;;;10.50;1.92;;;9.90;99.90;;;;;;5056848;28;20592;-39
2023/01/05 02:56:58;;;;;;;19.17;2.80;;;9.90;99.90;;;;;;5049120;28;20048;-39
2023/01/05 02:59:42;;;;;;;18.33;2.55;;;9.90;99.90;;;;;;5060807;28;20497;-39
2023/01/05 03:02:27;;;;;;;16.80;2.88;;;9.90;99.90;;;;;;5064767;28;20047;-39
2023/01/05 03:05:03;;;;;;;15.02;2.42;;;9.90;99.90;;;;;;5062766;28;20045;-40
2023/01/05 03:07:33;;;;;;;17.30;2.03;;;9.90;99.90;;;;;;5062487;28;20517;-39
2023/01/05 03:13:39;;;;;;;14.50;2.42;;;9.90;99.90;;;;;;5063020;28;21008;-38
2023/01/05 03:15:35;;;;;;;12.55;2.10;;;9.90;99.90;;;;;;5065029;28;20510;-39
2023/01/05 03:18:08;;;;;;;13.73;1.95;;;9.90;99.90;;;;;;5061618;28;20041;-38
2023/01/05 03:20:37;;;;;;;15.02;2.05;;;9.90;99.90;;;;;;5070851;28;20048;-38
2023/01/05 03:37:47;;;;;;;19.23;2.22;;;9.90;99.90;;;;;;5066143;28;20048;-38
2023/01/05 03:40:27;;;;;;;14.15;1.77;;;9.90;99.90;;;;;;5063136;28;20071;-37
2023/01/05 03:42:54;;;;;;;18.08;3.33;;;10.00;99.90;;;;;;5065958;28;20036;-38
2023/01/05 03:45:22;;;;;;;14.27;1.90;;;10.00;99.90;;;;;;5048901;28;20040;-39
2023/01/05 03:47:48;;;;;;;14.57;2.22;;;10.00;99.90;;;;;;5067512;28;20036;-37
2023/01/05 03:50:14;;;;;;;13.45;2.70;;;10.10;99.90;;;;;;5069900;28;20506;-39
2023/01/05 03:52:39;;;;;;;20.00;3.00;;;10.10;99.90;;;;;;5065452;28;20051;-38
2023/01/05 03:55:06;;;;;;;12.30;2.13;;;10.10;99.90;;;;;;5070701;28;20029;-38
2023/01/05 03:57:31;;;;;;;13.75;2.17;;;10.10;99.90;;;;;;5068321;28;20517;-39
2023/01/05 03:59:57;;;;;;;13.25;2.58;;;10.10;99.90;;;;;;5065158;28;20041;-37
2023/01/05 04:02:22;;;;;;;13.10;2.05;;;10.10;99.90;;;;;;5063985;28;20036;-37
2023/01/05 04:04:48;;;;;;;10.25;1.77;;;10.20;99.90;;;;;;5066382;28;20478;-38
2023/01/05 04:07:14;;;;;;;18.25;2.30;;;10.10;99.90;;;;;;5062522;28;20497;-39
2023/01/05 04:09:39;;;;;;;12.13;2.50;;;10.20;99.90;;;;;;5057768;28;20028;-38
2023/01/05 04:12:05;;;;;;;16.85;2.35;;;10.10;99.90;;;;;;5062764;28;20044;-41
2023/01/05 04:14:31;;;;;;;15.80;2.25;;;10.10;99.90;;;;;;5063505;28;20127;-39
2023/01/05 04:16:56;;;;;;;14.90;2.22;;;10.20;99.90;;;;;;5065715;28;20043;-38
2023/01/05 04:19:22;;;;;;;14.50;2.95;;;10.10;99.90;;;;;;5067525;28;20089;-37
2023/01/05 04:21:48;;;;;;;19.35;2.28;;;10.10;99.90;;;;;;5066656;28;20425;-38
2023/01/05 04:24:13;;;;;;;11.60;2.25;;;10.10;99.90;;;;;;5058957;28;20040;-38
2023/01/05 04:26:41;;;;;;;13.32;2.35;;;10.10;99.90;;;;;;5062974;28;20068;-39
2023/01/05 04:29:08;;;;;;;16.45;1.80;;;10.10;99.90;;;;;;5073717;28;20036;-40
2023/01/05 04:31:33;;;;;;;16.40;2.00;;;10.00;99.90;;;;;;5060900;28;20506;-37
2023/01/05 04:33:59;;;;;;;18.15;2.42;;;10.00;99.90;;;;;;5067970;28;20041;-40
2023/01/05 04:36:25;;;;;;;16.33;1.85;;;10.00;99.90;;;;;;5064563;28;20040;-38
2023/01/05 04:38:50;;;;;;;13.25;2.65;;;9.90;99.90;;;;;;5062003;28;20037;-41
2023/01/05 04:41:16;;;;;;;13.68;2.10;;;9.90;99.90;;;;;;5067493;28;20041;-37
2023/01/05 04:43:42;;;;;;;13.25;1.77;;;10.00;99.90;;;;;;5063986;28;20046;-40
2023/01/05 04:46:08;;;;;;;13.07;1.92;;;10.00;99.90;;;;;;5075055;28;20036;-38
2023/01/05 04:48:33;;;;;;;14.45;2.80;;;10.00;99.90;;;;;;5070186;28;20124;-39
2023/01/05 04:50:59;;;;;;;17.05;2.00;;;10.00;99.90;;;;;;5066531;28;20581;-38
2023/01/05 04:53:25;;;;;;;19.88;2.22;;;10.00;99.90;;;;;;5072530;28;20055;-38
2023/01/05 04:55:51;;;;;;;15.35;2.28;;;10.00;99.90;;;;;;5068522;28;20035;-39
2023/01/05 04:58:17;;;;;;;21.73;2.17;;;10.00;99.90;;;;;;5071071;28;20094;-37
2023/01/05 05:00:43;;;;;;;11.95;1.70;;;10.10;99.90;;;;;;5073562;28;20068;-38
2023/01/05 05:03:09;;;;;;;14.13;2.22;;;10.10;99.90;;;;;;5072767;28;20059;-37
2023/01/05 05:05:34;;;;;;;15.90;2.33;;;10.00;99.90;;;;;;5064483;28;20573;-38
2023/01/05 05:08:00;;;;;;;13.98;2.28;;;10.10;99.90;;;;;;5076635;28;20045;-37
2023/01/05 05:10:27;;;;;;;16.58;2.58;;;10.10;99.90;;;;;;5073885;28;20107;-37
2023/01/05 05:12:53;;;;;;;13.60;2.05;;;10.10;99.90;;;;;;5065057;28;20056;-38
2023/01/05 05:15:19;;;;;;;13.18;2.42;;;10.10;99.90;;;;;;5069999;28;20041;-37
2023/01/05 05:17:47;;;;;;;26.45;2.05;;;10.10;99.90;;;;;;5064244;28;20041;-38
2023/01/05 05:20:13;;;;;;;13.30;1.83;;;10.10;99.90;;;;;;5067349;28;20466;-37
2023/01/05 05:22:39;;;;;;;17.23;2.40;;;10.10;99.90;;;;;;5074281;28;20063;-38
2023/01/05 05:25:05;;;;;;;13.90;1.83;;;10.10;99.90;;;;;;5050983;28;20102;-39
2023/01/05 05:27:31;;;;;;;14.90;2.03;;;10.00;99.90;;;;;;5070738;28;20715;-39
2023/01/05 05:29:56;;;;;;;15.52;2.33;;;10.10;99.90;;;;;;5068485;28;20142;-37
2023/01/05 05:32:22;;;;;;;11.82;2.55;;;10.10;99.90;;;;;;5068147;28;20044;-38
2023/01/05 05:34:48;;;;;;;17.15;2.30;;;10.10;99.90;;;;;;5071703;28;20040;-39
2023/01/05 05:37:13;;;;;;;19.73;3.00;;;10.10;99.90;;;;;;5049266;28;20655;-39
2023/01/05 05:39:39;;;;;;;9.77;1.70;;;10.10;99.90;;;;;;5068380;28;20130;-38
2023/01/05 05:42:05;;;;;;;14.75;2.28;;;10.10;99.90;;;;;;5065467;28;20413;-39
2023/01/05 05:44:30;;;;;;;15.05;2.40;;;10.10;99.90;;;;;;5063301;28;20094;-38
2023/01/05 05:46:56;;;;;;;18.13;2.40;;;10.10;99.90;;;;;;5083624;28;20028;-38
2023/01/05 05:49:22;;;;;;;18.73;2.53;;;10.10;99.90;;;;;;5069577;28;20040;-37
2023/01/05 05:51:47;;;;;;;15.48;2.10;;;10.10;99.90;;;;;;5066032;28;20045;-38
2023/01/05 05:54:13;;;;;;;11.77;1.75;;;10.10;99.90;;;;;;5065545;28;20052;-37
2023/01/05 05:56:39;;;;;;;11.88;2.53;;;10.20;99.90;;;;;;5071691;28;20044;-39
2023/01/05 05:59:04;;;;;;;21.27;3.38;;;10.10;99.90;;;;;;5073957;28;20048;-38
2023/01/05 06:01:30;;;;;;;17.75;2.83;;;10.10;99.90;;;;;;5059798;28;20063;-38
2023/01/05 06:03:56;;;;;;;14.70;2.10;;;10.10;99.90;;;;;;5050952;28;20090;-38
2023/01/05 06:06:21;;;;;;;15.70;2.35;;;10.10;99.90;;;;;;5072568;28;20539;-38
2023/01/05 06:08:47;;;;;;;14.25;2.22;;;10.10;99.90;;;;;;5064579;28;20457;-37
2023/01/05 06:11:13;;;;;;;10.98;2.25;;;10.10;99.90;;;;;;5044023;28;20044;-37
2023/01/05 06:13:38;;;;;;;19.20;2.58;;;10.10;99.90;;;;;;5066525;28;20032;-39
2023/01/05 06:16:04;;;;;;;20.45;4.55;;;10.10;99.90;;;;;;5067836;28;20485;-38
2023/01/05 06:18:30;;;;;;;10.57;1.60;;;10.10;99.90;;;;;;5065074;28;20048;-39
2023/01/05 06:20:56;;;;;;;17.02;2.60;;;10.10;99.90;;;;;;5065969;28;20033;-38
2023/01/05 06:23:21;;;;;;;20.38;3.25;;;10.10;99.90;;;;;;5047916;28;20048;-37
2023/01/05 06:25:47;;;;;;;10.73;2.35;;;10.10;99.90;;;;;;5070077;28;20116;-38
2023/01/05 06:28:13;;;;;;;14.70;2.92;;;10.10;99.90;;;;;;5067501;28;20078;-38
2023/01/05 06:30:38;;;;;;;16.85;2.33;;;10.00;99.90;;;;;;5066899;28;20040;-38
2023/01/05 06:33:04;;;;;;;16.48;2.33;;;10.00;99.90;;;;;;5067900;28;20120;-38
2023/01/05 06:35:30;;;;;;;16.13;1.95;;;10.00;99.90;;;;;;5065296;28;20040;-37
2023/01/05 06:37:55;;;;;;;11.63;1.70;;;10.00;99.90;;;;;;5066519;28;20323;-38
2023/01/05 06:40:21;;;;;;;9.30;1.70;;;10.00;99.90;;;;;;5067422;28;20473;-37
2023/01/05 06:42:46;;;;;;;13.63;2.70;;;10.00;99.90;;;;;;5067064;28;20405;-37
2023/01/05 06:45:13;;;;;;;15.18;3.88;;;10.00;99.90;;;;;;5069439;28;20068;-37
2023/01/05 06:47:39;;;;;;;14.25;1.50;;;10.00;99.90;;;;;;5067855;28;20071;-37
2023/01/05 06:50:06;;;;;;;13.60;1.88;;;10.00;99.90;;;;;;5073528;28;20079;-38
2023/01/05 06:52:35;;;;;;;13.77;2.13;;;10.00;99.90;;;;;;5064275;28;20048;-37
2023/01/05 06:55:02;;;;;;;9.93;1.55;;;10.00;99.90;;;;;;5064658;28;20123;-37
2023/01/05 06:57:28;;;;;;;12.68;1.70;;;10.00;99.90;;;;;;5050745;28;20052;-39
2023/01/05 06:59:54;;;;;;;13.68;1.90;;;10.00;99.90;;;;;;5068036;28;20413;-37
2023/01/05 07:02:20;;;;;;;16.95;1.90;;;10.00;99.90;;;;;;5066382;28;20039;-38
2023/01/05 07:04:45;;;;;;;16.35;2.22;;;9.90;99.90;;;;;;5072502;28;20068;-38
2023/01/05 07:07:13;;;;;;;10.90;1.35;;;9.90;99.90;;;;;;5062112;28;20036;-37
2023/01/05 07:09:39;;;;;;;11.20;2.33;;;9.90;99.90;;;;;;5065822;28;20036;-37
2023/01/05 07:12:05;;;;;;;19.60;3.70;;;9.90;99.90;;;;;;5065094;28;20187;-37
2023/01/05 07:14:31;;;;;;;8.55;1.67;;;9.90;99.90;;;;;;5064835;28;20052;-38
2023/01/05 07:16:57;;;;;;;17.42;1.90;;;9.90;99.90;;;;;;5065043;28;20043;-38
2023/01/05 07:19:23;;;;;;;17.52;2.35;;;9.90;99.90;;;;;;5063411;28;20530;-39
2023/01/05 07:21:48;;;;;;;15.10;1.90;;;9.90;99.90;;;;;;5079773;28;20080;-37
2023/01/05 07:24:14;;;;;;;9.43;1.77;;;9.90;99.90;;;;;;5047460;28;20044;-39
2023/01/05 07:26:40;;;;;;;12.38;1.75;;;9.90;99.90;;;;;;5063977;28;20044;-37
2023/01/05 07:29:05;;;;;;;10.98;2.08;;;9.90;99.90;;;;;;5066928;28;20068;-38
2023/01/05 07:31:31;;;;;;;17.33;2.22;;;9.90;99.90;;;;;;5069803;28;20044;-37
2023/01/05 07:33:57;;;;;;;16.40;2.17;;;9.90;99.90;;;;;;5060834;28;20047;-37
2023/01/05 07:36:23;;;;;;;15.18;2.30;;;9.90;99.90;;;;;;5062613;28;20405;-39
2023/01/05 07:38:48;;;;;;;12.02;2.00;;;9.90;99.90;;;;;;5061971;28;20048;-40
2023/01/05 07:41:14;;;;;;;13.20;1.95;;;10.00;99.90;;;;;;5050774;28;20036;-38
2023/01/05 07:43:40;;;;;;;10.27;2.40;;;10.00;99.90;;;;;;5066529;28;20041;-44
2023/01/05 07:46:06;;;;;;;13.70;2.45;;;10.00;99.90;;;;;;5066125;28;20036;-38
2023/01/05 07:48:32;;;;;;;14.88;2.13;;;10.00;99.90;;;;;;5075788;28;20035;-37
2023/01/05 07:51:04;;;;;;;12.48;1.77;;;10.00;99.90;;;;;;5070385;28;20471;-38
2023/01/05 07:53:31;;;;;;;13.68;2.45;;;10.00;99.90;;;;;;5060348;28;20934;-37
2023/01/05 07:55:58;;;;;;;18.63;2.80;;;10.00;99.90;;;;;;5063876;28;20464;-38
2023/01/05 07:58:25;;;;;;;14.85;1.98;;;10.00;99.90;;;;;;5049272;28;20037;-38
2023/01/05 08:00:50;;;;;;;12.65;2.20;;;10.00;99.90;;;;;;5064705;28;20066;-44
2023/01/05 08:03:16;;;;;;;10.75;1.88;;;10.00;99.90;;;;;;5068328;28;20036;-40
2023/01/05 08:05:42;;;;;;;11.63;1.92;;;10.00;99.90;;;;;;5071531;28;20517;-39
2023/01/05 08:08:07;;;;;;;16.52;2.50;;;10.00;99.90;;;;;;5064059;28;20040;-37
2023/01/05 08:10:33;;;;;;;14.18;1.77;;;9.90;99.90;;;;;;5061693;28;20119;-37
2023/01/05 08:15:50;;;;;;;12.70;2.53;;;9.90;99.90;;;;;;5042991;28;20080;-38
2023/01/05 08:18:16;;;;;;;20.23;2.97;;;9.90;99.90;;;;;;5057790;28;23539;-38
2023/01/05 08:20:41;;;;;;;15.80;1.85;;;9.90;99.90;;;;;;5056684;28;20132;-38
2023/01/05 08:23:07;;;;;;;13.27;1.90;;;9.90;99.90;;;;;;5062427;28;20033;-39
2023/01/05 08:25:33;;;;;;;17.83;2.40;;;9.90;99.90;;;;;;5056887;28;20036;-38
2023/01/05 08:27:59;;;;;;;12.63;1.80;;;9.90;99.90;;;;;;5064837;28;20123;-37
2023/01/05 08:30:25;;;;;;;18.40;3.08;;;9.90;99.90;;;;;;5063978;28;20821;-37
2023/01/05 08:32:50;;;;;;;16.85;2.85;;;9.90;99.90;;;;;;5066982;28;20087;-38
2023/01/05 08:35:16;;;;;;;10.27;2.20;;;9.90;99.90;;;;;;5066807;28;20047;-51
2023/01/05 08:37:44;;;;;;;13.43;1.63;;;10.00;99.90;;;;;;5062829;28;20048;-37
2023/01/05 08:40:10;;;;;;;12.82;2.35;;;9.90;99.90;;;;;;5064501;28;20298;-36
2023/01/05 08:42:36;;;;;;;14.40;1.98;;;10.00;99.90;;;;;;5058668;28;20037;-37
2023/01/05 08:45:03;;;;;;;17.23;2.65;;;9.90;99.90;;;;;;5058409;28;20040;-36
2023/01/05 08:47:28;;;;;;;18.00;2.20;;;9.90;99.90;;;;;;5060716;28;20045;-36
2023/01/05 08:49:54;;;;;;;17.65;2.05;;;9.90;99.90;;;;;;5061795;28;20051;-37
2023/01/05 08:52:21;;;;;;;13.43;2.53;;;9.90;99.90;;;;;;5061833;28;20049;-39
2023/01/05 08:54:47;;;;;;;22.10;2.35;;;10.00;99.90;;;;;;5067038;28;20067;-39
2023/01/05 08:57:13;;;;;;;19.63;2.35;;;10.00;99.90;;;;;;5064662;28;20482;-38
2023/01/05 08:59:39;;;;;;;17.00;2.55;;;9.90;99.90;;;;;;5062770;28;20120;-39
2023/01/05 09:02:09;;;;;;;16.23;2.58;;;9.90;99.90;;;;;;5062118;28;20047;-38
2023/01/05 09:04:34;;;;;;;13.20;2.00;;;9.90;99.90;;;;;;5062932;28;20044;-39
2023/01/05 09:07:00;;;;;;;11.45;2.42;;;9.90;99.90;;;;;;5062148;28;20040;-37
2023/01/05 09:09:26;;;;;;;15.05;2.55;;;9.90;99.90;;;;;;5064649;28;20523;-38
2023/01/05 09:11:51;;;;;;;8.52;1.70;;;9.90;99.90;;;;;;5066941;28;20046;-38
2023/01/05 09:14:17;;;;;;;14.00;2.60;;;9.90;99.90;;;;;;5047112;28;20459;-38
2023/01/05 09:16:43;;;;;;;17.88;2.63;;;9.90;99.90;;;;;;5060509;28;20041;-38
2023/01/05 09:19:10;;;;;;;14.02;2.40;;;9.90;99.90;;;;;;5068146;28;20036;-42
2023/01/05 09:21:38;;;;;;;17.80;3.00;;;9.90;99.90;;;;;;5062587;28;20044;-38
2023/01/05 09:24:06;;;;;;;26.55;3.70;;;9.90;99.90;;;;;;5064685;28;20055;-39
2023/01/05 09:26:32;;;;;;;25.20;4.15;;;10.00;99.90;;;;;;5057187;28;20090;-39
2023/01/05 09:28:59;;;;;;;17.20;4.50;;;10.00;99.90;;;;;;5052361;28;20029;-40
2023/01/05 09:31:25;;;;;;;22.15;4.72;;;10.00;99.90;;;;;;5058766;28;20288;-42
2023/01/05 09:33:50;;;;;;;23.95;6.60;;;10.00;99.90;;;;;;5070519;28;20066;-37
2023/01/05 09:36:17;;;;;;;29.98;7.82;;;10.00;99.90;;;;;;5068413;28;20032;-37
2023/01/05 09:38:48;;;;;;;24.48;8.63;;;10.00;99.90;;;;;;5060476;28;20401;-40
2023/01/05 09:41:21;;;;;;;30.40;7.53;;;10.00;99.90;;;;;;5042641;28;20410;-39
2023/01/05 09:43:52;;;;;;;23.15;6.60;;;10.00;99.90;;;;;;5065131;28;21597;-42
2023/01/05 09:46:22;;;;;;;18.38;4.95;;;10.00;99.90;;;;;;5082421;28;20568;-38
2023/01/05 09:48:51;;;;;;;17.83;3.85;;;10.00;99.90;;;;;;5055907;28;21175;-38
2023/01/05 09:51:17;;;;;;;19.95;3.45;;;10.00;99.90;;;;;;5064049;28;20136;-38
2023/01/05 09:53:43;;;;;;;18.05;5.07;;;10.00;99.90;;;;;;5060801;28;20115;-38
2023/01/05 09:56:40;;;;;;;20.08;6.30;;;10.00;99.90;;;;;;5078114;28;21637;-38
2023/01/05 09:59:23;;;;;;;23.45;8.27;;;10.00;99.90;;;;;;5071141;28;20033;-38
2023/01/05 10:01:50;;;;;;;23.13;7.13;;;10.00;99.90;;;;;;5069141;28;21524;-39
2023/01/05 10:04:20;;;;;;;16.63;3.63;;;10.10;99.90;;;;;;5066932;28;20509;-38
2023/01/05 10:06:51;;;;;;;14.10;2.40;;;10.10;99.90;;;;;;5064558;28;20032;-37
2023/01/05 10:09:20;;;;;;;19.45;2.58;;;10.10;99.90;;;;;;5059985;28;20363;-37
2023/01/05 10:14:41;;;;;;;11.82;1.50;;;10.20;99.90;;;;;;5063570;28;21814;-38
2023/01/05 10:17:15;;;;;;;8.15;1.77;;;10.20;99.90;;;;;;5062142;28;20043;-38
2023/01/05 10:19:41;;;;;;;15.80;2.58;;;10.20;99.90;;;;;;5060495;28;20376;-38
2023/01/05 10:22:30;;;;;;;14.30;2.30;;;10.20;99.90;;;;;;5056801;28;20040;-40
2023/01/05 10:25:37;;;;;;;15.80;1.98;;;10.30;99.90;;;;;;5063323;28;20484;-39
2023/01/05 10:28:32;;;;;;;11.27;1.45;;;10.30;99.90;;;;;;5065617;28;20513;-41
2023/01/05 10:31:01;;;;;;;16.35;2.65;;;10.30;99.90;;;;;;5060790;28;20399;-37
2023/01/05 10:33:51;;;;;;;15.15;3.30;;;10.30;99.90;;;;;;5063826;28;20044;-44
2023/01/05 10:36:20;;;;;;;13.80;2.08;;;10.30;99.90;;;;;;5063586;28;20081;-45
2023/01/05 10:38:48;;;;;;;13.48;2.15;;;10.40;99.90;;;;;;5063828;28;20037;-45
2023/01/05 10:41:36;;;;;;;11.60;1.75;;;10.40;99.90;;;;;;5061969;28;20127;-46
2023/01/05 10:44:29;;;;;;;16.23;2.90;;;10.40;99.90;;;;;;5063014;28;20486;-44
2023/01/05 10:46:55;;;;;;;;;;;10.40;99.90;;;;;;5062788;28;20041;-45
2023/01/05 10:49:26;;;;;;;13.93;1.65;;;10.40;99.90;;;;;;5066134;28;19924;-48
2023/01/05 10:51:54;;;;;;;14.88;2.40;;;10.30;99.90;;;;;;5064086;28;20057;-42
2023/01/05 10:54:42;;;;;;;12.73;1.75;;;10.30;99.90;;;;;;5058673;28;20040;-42
2023/01/05 10:57:34;;;;;;;10.48;1.30;;;10.30;99.90;;;;;;5045672;28;20058;-45
2023/01/05 11:00:37;;;;;;;14.45;1.95;;;10.30;99.90;;;;;;5060858;28;20038;-44
2023/01/05 11:03:06;;;;;;;13.82;1.45;;;10.30;99.90;;;;;;5055076;28;20545;-43
2023/01/05 11:05:44;;;;;;;13.07;3.17;;;10.30;99.90;;;;;;5061412;28;20500;-42
2023/01/05 11:08:21;;;;;;;15.57;3.10;;;10.30;99.90;;;;;;5061887;28;20032;-42
2023/01/05 11:10:51;;;;;;;12.32;2.30;;;10.30;99.90;;;;;;5071335;28;20044;-46
2023/01/05 11:13:28;;;;;;;14.27;2.20;;;10.30;99.90;;;;;;5064513;28;20059;-43
2023/01/05 11:15:58;;;;;;;14.77;1.90;;;10.30;99.90;;;;;;5067883;28;20044;-44
2023/01/05 11:18:24;;;;;;;18.98;2.60;;;10.30;99.90;;;;;;5062067;28;20521;-46
2023/01/05 11:21:17;;;;;;;12.55;2.40;;;10.30;99.90;;;;;;5041138;28;20123;-44
2023/01/05 11:23:48;;;;;;;13.15;2.05;;;10.20;99.90;;;;;;5064261;28;20583;-42
2023/01/05 11:26:20;;;;;;;13.27;1.75;;;10.20;99.90;;;;;;5066787;28;20041;-46
2023/01/05 11:29:06;;;;;;;12.60;2.08;;;10.20;99.90;;;;;;5062445;28;20032;-48
2023/01/05 11:31:35;;;;;;;19.92;2.08;;;10.20;99.90;;;;;;5066220;28;20040;-39
2023/01/05 11:34:36;;;;;;;11.45;1.90;;;10.10;99.90;;;;;;5063401;28;20048;-44
2023/01/05 11:37:11;;;;;;;12.40;1.65;;;10.10;99.90;;;;;;5064140;28;20043;-46
2023/01/05 11:39:54;;;;;;;13.10;1.50;;;10.10;99.90;;;;;;5073041;28;20382;-40
2023/01/05 11:42:23;;;;;;;13.60;1.73;;;10.10;99.90;;;;;;5059525;28;20040;-44
2023/01/05 11:45:06;;;;;;;19.45;2.72;;;10.00;99.90;;;;;;5071144;28;20048;-45
2023/01/05 11:47:42;;;;;;;46.83;3.53;;;10.00;99.90;;;;;;5054852;28;20040;-46
2023/01/05 11:50:08;;;;;;;17.48;2.63;;;10.10;99.90;;;;;;5063889;28;21256;-43
2023/01/05 11:52:46;;;;;;;13.57;2.33;;;10.10;99.90;;;;;;5071307;28;20041;-42
2023/01/05 11:55:37;;;;;;;16.23;2.92;;;10.10;99.90;;;;;;5060026;28;20047;-48
2023/01/05 11:58:08;;;;;;;18.83;3.20;;;10.10;99.90;;;;;;5042233;28;20044;-46
2023/01/05 12:00:51;;;;;;;19.83;2.93;;;10.20;99.90;;;;;;5061706;28;20051;-45
2023/01/05 12:03:25;;;;;;;11.27;1.92;;;10.20;99.90;;;;;;5049959;28;20336;-45
2023/01/05 12:05:55;;;;;;;11.93;2.05;;;10.30;99.90;;;;;;5075743;28;20086;-45
2023/01/05 12:08:29;;;;;;;19.27;2.58;;;10.30;99.90;;;;;;5051100;28;20089;-50
2023/01/05 12:11:10;;;;;;;11.02;1.60;;;10.30;99.90;;;;;;5065035;28;20414;-47
2023/01/05 12:13:57;;;;;;;11.57;1.88;;;10.40;99.90;;;;;;5062699;28;20079;-37
2023/01/05 12:16:44;;;;;;;11.38;1.88;;;10.40;99.90;;;;;;5059081;28;20071;-38
2023/01/05 12:19:34;;;;;;;12.80;2.00;;;10.40;99.90;;;;;;5061334;28;20525;-37
2023/01/05 12:22:26;;;;;;;12.40;2.65;;;10.40;99.90;;;;;;5062906;28;20120;-37
2023/01/05 12:25:00;;;;;;;18.15;2.30;;;10.40;99.90;;;;;;5032773;28;20045;-37
2023/01/05 12:27:43;;;;;;;14.48;1.98;;;10.40;99.90;;;;;;5045596;28;20494;-37
2023/01/05 12:30:18;;;;;;;13.27;2.17;;;10.40;99.90;;;;;;5066497;28;20040;-39
2023/01/05 12:33:05;;;;;;;12.32;2.28;;;10.50;99.90;;;;;;5064827;28;20045;-39
2023/01/05 12:35:49;;;;;;;13.65;1.98;;;10.50;99.90;;;;;;5068715;28;20044;-38
2023/01/05 12:38:47;;;;;;;17.67;1.92;;;10.50;99.90;;;;;;5072570;28;20044;-39
2023/01/05 12:41:38;;;;;;;12.80;2.28;;;10.50;99.90;;;;;;5026411;28;20059;-38
2023/01/05 12:44:18;;;;;;;19.77;2.30;;;10.50;99.90;;;;;;5069358;28;20086;-37
2023/01/05 12:47:06;;;;;;;24.30;3.13;;;10.50;99.90;;;;;;5064256;28;20047;-38
2023/01/05 12:49:54;;;;;;;16.08;2.42;;;10.40;99.90;;;;;;5059089;28;20040;-38
2023/01/05 12:52:28;;;;;;;20.02;2.55;;;10.40;99.90;;;;;;5064703;28;20155;-50
2023/01/05 12:55:03;;;;;;;21.35;4.95;;;10.30;99.90;;;;;;5062802;28;20787;-51
2023/01/05 12:57:34;;;;;;;18.30;2.38;;;10.40;99.90;;;;;;5064498;28;20409;-48
2023/01/05 13:00:03;;;;;;;18.05;2.65;;;10.30;99.90;;;;;;5064268;28;20048;-48
2023/01/05 13:02:35;;;;;;;16.83;2.28;;;10.30;99.90;;;;;;5066668;28;21816;-45
2023/01/05 13:05:18;;;;;;;11.20;2.75;;;10.30;99.90;;;;;;5065107;28;20036;-51
2023/01/05 13:07:52;;;;;;;11.38;2.13;;;10.30;99.90;;;;;;5074912;28;20525;-41
2023/01/05 13:10:41;;;;;;;14.60;2.22;;;10.30;99.90;;;;;;5075703;28;20363;-48
2023/01/05 13:13:19;;;;;;;12.98;2.30;;;10.20;99.90;;;;;;5068436;28;20053;-49
2023/01/05 13:16:12;;;;;;;15.00;2.00;;;10.20;99.90;;;;;;5061880;28;20514;-46
2023/01/05 13:18:43;;;;;;;14.55;2.47;;;10.20;99.90;;;;;;5056399;28;20044;-48
2023/01/05 13:21:09;;;;;;;19.27;1.92;;;10.20;99.90;;;;;;5066044;28;20118;-43
2023/01/05 13:23:46;;;;;;;14.60;2.53;;;10.20;99.90;;;;;;5073878;28;20482;-48
2023/01/05 13:26:18;;;;;;;16.90;2.67;;;10.20;99.90;;;;;;5071788;28;20560;-47
2023/01/05 13:28:54;;;;;;;15.47;3.10;;;10.20;99.90;;;;;;5074555;28;20490;-47
2023/01/05 13:31:29;;;;;;;17.17;2.20;;;10.20;99.90;;;;;;5072156;28;20298;-51